createdAt,value
2023-05-14T00:01:07.640Z,11.97
2023-05-14T00:04:12.900Z,11.91
2023-05-14T00:07:18.590Z,11.83
2023-05-14T00:10:26.213Z,11.81
2023-05-14T00:13:32.303Z,11.75
2023-05-14T00:16:38.153Z,11.74
2023-05-14T00:19:46.397Z,11.74
2023-05-14T00:22:51.899Z,11.74
2023-05-14T00:25:57.302Z,11.71
2023-05-14T00:29:02.634Z,11.68
2023-05-14T00:32:09.140Z,11.66
2023-05-14T00:35:16.011Z,11.64
2023-05-14T00:38:22.780Z,11.59
2023-05-14T00:41:28.273Z,11.53
2023-05-14T00:44:34.352Z,11.52
2023-05-14T00:47:45.949Z,11.48
2023-05-14T00:50:51.113Z,11.43
2023-05-14T00:53:57.635Z,11.40
2023-05-14T00:57:03.701Z,11.35
2023-05-14T01:00:10.048Z,11.30
2023-05-14T01:03:14.850Z,11.29
2023-05-14T01:07:08.626Z,11.27
2023-05-14T01:10:28.747Z,11.27
2023-05-14T01:13:59.514Z,11.22
2023-05-14T01:17:08.728Z,11.23
2023-05-14T01:20:15.905Z,11.20
2023-05-14T01:23:21.859Z,11.20
2023-05-14T01:26:28.372Z,11.25
2023-05-14T01:29:38.241Z,11.26
2023-05-14T01:32:45.166Z,11.28
2023-05-14T01:35:51.590Z,11.29
2023-05-14T01:38:58.400Z,11.33
2023-05-14T01:42:04.345Z,11.39
2023-05-14T01:45:11.518Z,11.44
2023-05-14T01:48:19.803Z,11.44
2023-05-14T01:51:25.693Z,11.43
2023-05-14T01:54:30.589Z,11.47
2023-05-14T01:57:36.806Z,11.52
2023-05-14T02:00:41.945Z,11.56
2023-05-14T02:03:49.946Z,11.60
2023-05-14T02:06:55.428Z,11.65
2023-05-14T02:10:01.414Z,11.68
2023-05-14T02:13:07.923Z,11.76
2023-05-14T02:16:14.619Z,11.80
2023-05-14T02:19:21.699Z,11.84
2023-05-14T02:22:26.903Z,11.85
2023-05-14T02:25:31.907Z,11.88
2023-05-14T02:28:37.023Z,11.90
2023-05-14T02:31:44.673Z,11.92
2023-05-14T02:34:50.993Z,11.94
2023-05-14T02:37:57.183Z,11.96
2023-05-14T02:41:02.280Z,11.96
2023-05-14T02:44:08.003Z,11.99
2023-05-14T02:47:13.660Z,12.02
2023-05-14T02:50:20.117Z,12.06
2023-05-14T02:53:24.944Z,12.13
2023-05-14T02:56:30.688Z,12.18
2023-05-14T02:59:39.434Z,12.23
2023-05-14T03:02:46.921Z,12.31
2023-05-14T03:05:54.944Z,12.39
2023-05-14T03:09:01.770Z,12.46
2023-05-14T03:12:07.893Z,12.55
2023-05-14T03:15:14.381Z,12.62
2023-05-14T03:18:20.305Z,12.71
2023-05-14T03:21:25.624Z,12.78
2023-05-14T03:24:31.910Z,12.85
2023-05-14T03:27:37.408Z,12.92
2023-05-14T03:30:44.650Z,12.99
2023-05-14T03:33:51.514Z,13.07
2023-05-14T03:36:57.906Z,13.13
2023-05-14T03:40:03.861Z,13.21
2023-05-14T03:43:09.365Z,13.28
2023-05-14T03:46:15.228Z,13.38
2023-05-14T03:49:21.844Z,13.47
2023-05-14T03:52:27.334Z,13.55
2023-05-14T03:55:37.317Z,13.65
2023-05-14T03:58:43.194Z,13.76
2023-05-14T04:01:48.525Z,13.84
2023-05-14T04:04:54.104Z,13.94
2023-05-14T04:08:05.079Z,14.03
2023-05-14T04:11:11.818Z,14.10
2023-05-14T04:14:20.521Z,14.18
2023-05-14T04:17:25.199Z,14.28
2023-05-14T04:20:30.080Z,14.35
2023-05-14T04:23:38.593Z,14.44
2023-05-14T04:26:43.913Z,14.56
2023-05-14T04:29:49.337Z,14.66
2023-05-14T04:32:55.738Z,14.76
2023-05-14T04:36:02.133Z,14.86
2023-05-14T04:39:07.711Z,14.98
2023-05-14T04:42:14.450Z,15.08
2023-05-14T04:45:21.011Z,15.18
2023-05-14T04:48:25.634Z,15.30
2023-05-14T04:51:32.191Z,15.43
2023-05-14T04:54:39.326Z,15.55
2023-05-14T04:57:44.986Z,15.68
2023-05-14T05:00:51.688Z,15.84
2023-05-14T05:03:58.036Z,16.00
2023-05-14T05:07:05.359Z,16.16
2023-05-14T05:10:13.328Z,16.34
2023-05-14T05:13:19.249Z,16.51
2023-05-14T05:16:26.330Z,16.66
2023-05-14T05:19:43.104Z,16.85
2023-05-14T05:22:41.211Z,17.03
2023-05-14T05:25:46.547Z,17.21
2023-05-14T05:28:52.303Z,17.37
2023-05-14T05:31:57.912Z,17.55
2023-05-14T05:35:03.588Z,17.69
2023-05-14T05:38:08.955Z,17.83
2023-05-14T05:41:15.257Z,17.96
2023-05-14T05:44:21.360Z,18.06
2023-05-14T05:47:28.032Z,18.18
2023-05-14T05:50:33.601Z,18.32
2023-05-14T05:53:40.168Z,18.48
2023-05-14T05:56:45.912Z,18.64
2023-05-14T05:59:51.258Z,18.79
2023-05-14T06:02:57.117Z,18.94
2023-05-14T06:06:03.289Z,19.08
2023-05-14T06:09:13.078Z,19.21
2023-05-14T06:12:20.469Z,19.35
2023-05-14T06:15:27.245Z,19.49
2023-05-14T06:18:32.758Z,19.61
2023-05-14T06:21:39.540Z,19.71
2023-05-14T06:24:45.434Z,19.83
2023-05-14T06:27:52.554Z,19.94
2023-05-14T06:30:57.804Z,20.08
2023-05-14T06:34:03.744Z,20.20
2023-05-14T06:37:10.761Z,20.33
2023-05-14T06:40:16.884Z,20.46
2023-05-14T06:43:24.870Z,20.58
2023-05-14T06:46:31.016Z,20.67
2023-05-14T06:49:36.881Z,20.76
2023-05-14T06:52:43.213Z,20.85
2023-05-14T06:55:50.432Z,20.93
2023-05-14T06:58:57.212Z,21.03
2023-05-14T07:02:03.603Z,21.13
2023-05-14T07:05:10.057Z,21.22
2023-05-14T07:08:17.238Z,21.31
2023-05-14T07:11:23.903Z,21.42
2023-05-14T07:14:32.552Z,21.52
2023-05-14T07:17:38.292Z,21.62
2023-05-14T07:20:44.444Z,21.72
2023-05-14T07:23:51.050Z,21.82
2023-05-14T07:26:55.876Z,21.93
2023-05-14T07:30:02.168Z,22.03
2023-05-14T07:33:08.816Z,22.13
2023-05-14T07:36:15.671Z,22.23
2023-05-14T07:39:21.221Z,22.32
2023-05-14T07:42:35.865Z,22.40
2023-05-14T07:45:34.865Z,22.48
2023-05-14T07:48:40.806Z,22.57
2023-05-14T07:51:48.568Z,22.69
2023-05-14T07:54:56.447Z,22.81
2023-05-14T07:58:04.329Z,22.88
2023-05-14T08:01:11.197Z,22.96
2023-05-14T08:04:18.365Z,23.03
2023-05-14T08:07:23.333Z,23.10
2023-05-14T08:10:29.740Z,23.16
2023-05-14T08:13:35.871Z,23.23
2023-05-14T08:16:41.000Z,23.33
2023-05-14T08:19:48.947Z,23.39
2023-05-14T08:22:54.810Z,23.43
2023-05-14T08:26:00.948Z,23.50
2023-05-14T08:29:10.785Z,23.60
2023-05-14T08:32:23.498Z,23.75
2023-05-14T08:35:24.393Z,23.86
2023-05-14T08:38:30.013Z,24.02
2023-05-14T08:41:37.413Z,24.05
2023-05-14T08:44:58.191Z,24.10
2023-05-14T08:48:08.192Z,24.08
2023-05-14T08:51:13.365Z,24.04
2023-05-14T08:54:23.359Z,24.00
2023-05-14T08:57:32.008Z,23.97
2023-05-14T09:00:37.929Z,23.93
2023-05-14T09:03:43.361Z,23.92
2023-05-14T09:06:51.570Z,23.94
2023-05-14T09:09:58.521Z,23.95
2023-05-14T09:13:03.583Z,24.01
2023-05-14T09:16:09.679Z,24.12
2023-05-14T09:19:16.365Z,24.41
2023-05-14T09:22:28.988Z,24.80
2023-05-14T09:25:34.374Z,25.13
2023-05-14T09:28:41.221Z,25.33
2023-05-14T09:31:47.961Z,25.34
2023-05-14T09:34:54.391Z,25.15
2023-05-14T09:38:01.714Z,24.96
2023-05-14T09:41:07.626Z,24.78
2023-05-14T09:44:12.340Z,24.68
2023-05-14T09:47:17.507Z,24.69
2023-05-14T09:50:25.631Z,24.88
2023-05-14T09:53:34.623Z,25.05
2023-05-14T09:56:41.492Z,25.18
2023-05-14T09:59:48.733Z,25.37
2023-05-14T10:02:55.884Z,25.40
2023-05-14T10:06:03.534Z,25.45
2023-05-14T10:09:14.164Z,25.70
2023-05-14T10:12:20.575Z,25.89
2023-05-14T10:15:30.472Z,26.07
2023-05-14T10:18:38.377Z,26.27
2023-05-14T10:21:44.668Z,26.42
2023-05-14T10:24:49.861Z,26.68
2023-05-14T10:27:55.106Z,26.94
2023-05-14T10:31:02.116Z,27.02
2023-05-14T10:34:08.596Z,27.11
2023-05-14T10:37:17.933Z,27.22
2023-05-14T10:40:27.449Z,27.28
2023-05-14T10:43:33.260Z,27.40
2023-05-14T10:46:39.145Z,27.50
2023-05-14T10:49:45.641Z,27.65
2023-05-14T10:52:51.360Z,27.70
2023-05-14T10:55:58.579Z,27.71
2023-05-14T10:59:05.000Z,27.74
2023-05-14T11:02:14.957Z,27.68
2023-05-14T11:05:25.620Z,27.53
2023-05-14T11:08:32.109Z,27.61
2023-05-14T11:11:37.866Z,27.78
2023-05-14T11:14:43.450Z,28.00
2023-05-14T11:17:48.988Z,28.14
2023-05-14T11:20:54.763Z,28.34
2023-05-14T11:24:04.041Z,28.46
2023-05-14T11:27:08.920Z,28.64
2023-05-14T11:30:14.076Z,28.57
2023-05-14T11:33:20.665Z,28.10
2023-05-14T11:36:26.140Z,27.61
2023-05-14T11:39:34.494Z,27.15
2023-05-14T11:42:42.754Z,26.77
2023-05-14T11:45:50.312Z,26.41
2023-05-14T11:48:56.647Z,26.18
2023-05-14T11:52:02.055Z,26.07
2023-05-14T11:55:08.080Z,25.95
2023-05-14T11:58:13.475Z,25.81
2023-05-14T12:01:20.732Z,25.73
2023-05-14T12:04:31.027Z,25.71
2023-05-14T12:07:38.022Z,25.70
2023-05-14T12:10:43.193Z,25.71
2023-05-14T12:13:51.075Z,25.70
2023-05-14T12:16:57.845Z,25.69
2023-05-14T12:20:04.642Z,25.76
2023-05-14T12:23:10.292Z,26.02
2023-05-14T12:26:23.704Z,26.15
2023-05-14T12:29:29.293Z,26.12
2023-05-14T12:32:34.989Z,26.07
2023-05-14T12:35:39.945Z,26.05
2023-05-14T12:38:47.605Z,26.11
2023-05-14T12:41:52.809Z,26.25
2023-05-14T12:44:59.790Z,26.30
2023-05-14T12:48:05.194Z,26.41
2023-05-14T12:51:10.977Z,26.49
2023-05-14T12:54:18.162Z,26.51
2023-05-14T12:57:24.127Z,26.50
2023-05-14T13:00:31.148Z,26.47
2023-05-14T13:03:37.394Z,26.45
2023-05-14T13:06:46.236Z,26.36
2023-05-14T13:09:52.557Z,26.23
2023-05-14T13:12:59.539Z,26.21
2023-05-14T13:16:05.902Z,26.22
2023-05-14T13:19:13.352Z,26.19
2023-05-14T13:22:18.322Z,26.16
2023-05-14T13:25:24.849Z,26.08
2023-05-14T13:28:30.678Z,25.97
2023-05-14T13:31:36.959Z,26.07
2023-05-14T13:34:43.469Z,26.36
2023-05-14T13:37:48.273Z,26.56
2023-05-14T13:40:53.693Z,26.73
2023-05-14T13:43:59.744Z,26.86
2023-05-14T13:47:06.560Z,27.03
2023-05-14T13:50:13.189Z,27.19
2023-05-14T13:53:18.833Z,27.31
2023-05-14T13:56:26.614Z,27.35
2023-05-14T13:59:33.152Z,27.70
2023-05-14T14:02:38.663Z,27.82
2023-05-14T14:05:44.964Z,27.66
2023-05-14T14:08:51.325Z,27.45
2023-05-14T14:11:57.896Z,27.29
2023-05-14T14:15:06.197Z,27.22
2023-05-14T14:18:11.770Z,27.26
2023-05-14T14:21:18.031Z,27.49
2023-05-14T14:24:24.802Z,28.04
2023-05-14T14:27:31.152Z,28.26
2023-05-14T14:30:36.453Z,28.53
2023-05-14T14:33:42.527Z,28.71
2023-05-14T14:36:48.034Z,29.01
2023-05-14T14:39:54.764Z,29.20
2023-05-14T14:43:00.433Z,29.21
2023-05-14T14:46:05.936Z,29.59
2023-05-14T14:49:12.581Z,29.93
2023-05-14T14:52:18.843Z,29.76
2023-05-14T14:55:25.006Z,29.85
2023-05-14T14:58:30.983Z,29.85
2023-05-14T15:01:36.746Z,30.25
2023-05-14T15:04:43.737Z,30.10
2023-05-14T15:07:51.572Z,29.93
2023-05-14T15:11:00.119Z,30.04
2023-05-14T15:14:06.076Z,30.15
2023-05-14T15:17:12.751Z,30.36
2023-05-14T15:20:11.259Z,30.43
2023-05-14T15:22:58.656Z,30.42
2023-05-14T15:25:50.751Z,30.18
2023-05-14T15:28:37.954Z,29.82
2023-05-14T15:31:32.919Z,29.11
2023-05-14T15:34:25.676Z,28.56
2023-05-14T15:37:31.648Z,28.12
2023-05-14T15:40:38.000Z,27.90
2023-05-14T15:43:43.421Z,28.04
2023-05-14T15:46:49.879Z,28.04
2023-05-14T15:49:55.978Z,27.78
2023-05-14T15:53:02.525Z,27.20
2023-05-14T15:56:11.318Z,26.98
2023-05-14T15:59:17.280Z,27.46
2023-05-14T16:02:23.162Z,27.97
2023-05-14T16:05:29.190Z,28.28
2023-05-14T16:08:33.930Z,28.57
2023-05-14T16:11:39.801Z,28.90
2023-05-14T16:14:44.982Z,28.97
2023-05-14T16:17:51.615Z,28.60
2023-05-14T16:20:56.248Z,27.86
2023-05-14T16:24:03.283Z,27.10
2023-05-14T16:27:08.131Z,26.49
2023-05-14T16:30:14.492Z,26.02
2023-05-14T16:33:20.535Z,25.61
2023-05-14T16:36:27.348Z,25.25
2023-05-14T16:39:33.169Z,24.96
2023-05-14T16:42:39.229Z,24.72
2023-05-14T16:45:47.036Z,24.49
2023-05-14T16:48:53.089Z,24.24
2023-05-14T16:51:59.184Z,23.97
2023-05-14T16:55:04.312Z,23.67
2023-05-14T16:58:11.457Z,23.46
2023-05-14T17:01:18.233Z,23.24
2023-05-14T17:04:25.963Z,22.99
2023-05-14T17:07:32.318Z,22.72
2023-05-14T17:10:39.312Z,22.46
2023-05-14T17:13:45.138Z,22.23
2023-05-14T17:16:52.572Z,22.01
2023-05-14T17:19:58.326Z,21.80
2023-05-14T17:23:03.872Z,21.58
2023-05-14T17:26:09.887Z,21.38
2023-05-14T17:29:10.143Z,21.14
2023-05-14T17:32:16.890Z,20.90
2023-05-14T17:35:23.481Z,20.70
2023-05-14T17:38:32.084Z,20.50
2023-05-14T17:41:38.429Z,20.25
2023-05-14T17:44:45.004Z,20.00
2023-05-14T17:47:52.239Z,19.75
2023-05-14T17:50:59.012Z,19.50
2023-05-14T17:54:05.068Z,19.25
2023-05-14T17:57:11.802Z,19.02
2023-05-14T18:00:18.398Z,18.82
2023-05-14T18:03:25.304Z,18.62
2023-05-14T18:06:30.979Z,18.41
2023-05-14T18:09:36.356Z,18.23
2023-05-14T18:12:42.454Z,18.06
2023-05-14T18:15:48.514Z,17.93
2023-05-14T18:18:56.361Z,17.79
2023-05-14T18:22:02.625Z,17.65
2023-05-14T18:25:10.559Z,17.52
2023-05-14T18:28:15.736Z,17.36
2023-05-14T18:31:22.752Z,17.22
2023-05-14T18:34:29.555Z,17.09
2023-05-14T18:37:35.680Z,16.95
2023-05-14T18:40:41.491Z,16.83
2023-05-14T18:43:47.514Z,16.72
2023-05-14T18:46:54.766Z,16.60
2023-05-14T18:50:02.282Z,16.49
2023-05-14T18:53:09.226Z,16.38
2023-05-14T18:56:16.157Z,16.32
2023-05-14T18:59:22.146Z,16.25
2023-05-14T19:02:27.305Z,16.18
2023-05-14T19:05:33.167Z,16.10
2023-05-14T19:08:39.403Z,16.03
2023-05-14T19:11:49.379Z,15.92
2023-05-14T19:14:54.466Z,15.83
2023-05-14T19:18:01.331Z,15.75
2023-05-14T19:21:09.059Z,15.66
2023-05-14T19:24:15.472Z,15.59
2023-05-14T19:27:23.760Z,15.54
2023-05-14T19:30:30.537Z,15.47
2023-05-14T19:33:36.518Z,15.44
2023-05-14T19:36:43.262Z,15.40
2023-05-14T19:39:49.998Z,15.37
2023-05-14T19:42:55.489Z,15.36
2023-05-14T19:46:01.645Z,15.32
2023-05-14T19:49:08.869Z,15.29
2023-05-14T19:52:15.587Z,15.25
2023-05-14T19:55:23.519Z,15.22
2023-05-14T19:58:32.002Z,15.19
2023-05-14T20:01:41.170Z,15.16
2023-05-14T20:04:47.800Z,15.15
2023-05-14T20:07:55.638Z,15.13
2023-05-14T20:11:04.152Z,15.14
2023-05-14T20:14:10.582Z,15.14
2023-05-14T20:17:17.909Z,15.13
2023-05-14T20:20:25.811Z,15.09
2023-05-14T20:23:33.683Z,15.06
2023-05-14T20:26:39.927Z,15.03
2023-05-14T20:29:46.460Z,14.96
2023-05-14T20:32:53.733Z,14.87
2023-05-14T20:36:01.105Z,14.79
2023-05-14T20:39:08.498Z,14.74
2023-05-14T20:42:14.238Z,14.68
2023-05-14T20:45:21.969Z,14.61
2023-05-14T20:48:28.985Z,14.53
2023-05-14T20:51:35.884Z,14.45
2023-05-14T20:54:41.602Z,14.40
2023-05-14T20:57:47.560Z,14.35
2023-05-14T21:00:54.548Z,14.29
2023-05-14T21:04:01.099Z,14.22
2023-05-14T21:07:09.806Z,14.12
2023-05-14T21:10:15.860Z,14.04
2023-05-14T21:13:21.659Z,13.97
2023-05-14T21:16:27.483Z,13.92
2023-05-14T21:19:33.660Z,13.86
2023-05-14T21:22:41.532Z,13.80
2023-05-14T21:25:46.966Z,13.74
2023-05-14T21:28:53.251Z,13.66
2023-05-14T21:32:00.564Z,13.60
2023-05-14T21:35:07.403Z,13.54
2023-05-14T21:38:12.508Z,13.49
2023-05-14T21:41:17.877Z,13.47
2023-05-14T21:44:23.662Z,13.43
2023-05-14T21:47:28.858Z,13.38
2023-05-14T21:50:35.883Z,13.33
2023-05-14T21:53:42.016Z,13.30
2023-05-14T21:56:50.070Z,13.26
2023-05-14T21:59:55.703Z,13.21
2023-05-14T22:03:03.193Z,13.15
2023-05-14T22:06:11.249Z,13.10
2023-05-14T22:09:18.190Z,13.03
2023-05-14T22:12:23.950Z,12.98
2023-05-14T22:15:29.662Z,12.93
2023-05-14T22:18:36.451Z,12.88
2023-05-14T22:21:42.638Z,12.85
2023-05-14T22:24:48.372Z,12.83
2023-05-14T22:27:54.321Z,12.82
2023-05-14T22:30:59.927Z,12.80
2023-05-14T22:34:05.665Z,12.73
2023-05-14T22:37:11.418Z,12.65
2023-05-14T22:40:17.084Z,12.58
2023-05-14T22:43:23.380Z,12.52
2023-05-14T22:46:29.521Z,12.49
2023-05-14T22:49:35.264Z,12.45
2023-05-14T22:52:41.462Z,12.40
2023-05-14T22:55:46.932Z,12.34
2023-05-14T22:58:55.021Z,12.28
2023-05-14T23:02:00.309Z,12.20
2023-05-14T23:05:06.175Z,12.12
2023-05-14T23:08:11.504Z,12.05
2023-05-14T23:11:17.795Z,12.01
2023-05-14T23:14:24.910Z,11.96
2023-05-14T23:17:31.804Z,11.94
2023-05-14T23:20:36.883Z,11.93
2023-05-14T23:23:42.162Z,11.91
2023-05-14T23:26:47.441Z,11.88
2023-05-14T23:29:52.586Z,11.84
2023-05-14T23:33:00.288Z,11.78
2023-05-14T23:36:06.552Z,11.73
2023-05-14T23:39:13.600Z,11.66
2023-05-14T23:42:18.582Z,11.59
2023-05-14T23:45:25.301Z,11.56
2023-05-14T23:48:32.138Z,11.53
2023-05-14T23:51:38.661Z,11.50
2023-05-14T23:54:45.114Z,11.48
2023-05-14T23:57:53.865Z,11.47
